Grand Rapids - Itsaca County Airport

About
Name: Grand Rapids - Itsaca County Airport
Identifier:  GPZ/KGPZ
Operator:  Grand Rapids / Itasca County, Minnesota
Public/Private:  Public
Local Time:  21. Sep 14:53 CDT
Description: Grand Rapids–Itasca County Airport, also known as Gordon Newstrom Field or Gordy Newstrom Field, is a public airport located two miles southeast of the central business district of Grand Rapids, a city in Itasca County, Minnesota, United States. The airport has three runways.
Source: Wikipedia
Location
Grand Rapids
  United States

Runways
Identifier Length (m/ft) Surface
16/34 5,747/5,747 Asphalt
5/23 3,000/3,000 Asphalt
10/28 1,334/1,334 Turf
Statistics
Flights per Day:
0 flights
Distance: 150km (93mi)
Flights delayed:
0% (0 flights per day delayed)
Delay Average: 53 minutes
Current Weather
 21 C (Humidity: 88%)
  10kt (18km/h / 11mph) from 180°
  Overcast at 1,000 feet (304 meter)
  16km (10 mi.)
 METAR KGPZ 211856Z AUTO 18010KT 10SM OVC010 21/19 A2970 RMK AO2 RAB07E44 SLP053 P0000 T02110194

Current Delays

Departures
N/A
Arrivals
N/A

Destinations

Top Destinations
Airport Flights
per week
Seats
per week
  International Falls (INL) 0 - 0 0

Airlines & Planes

Top Airlines
Airline Flights
per Day
Seats
per Day
Bemidji Airlines 0 -
Top Plane Types
Model Flights Seats
Beech 65-B80 0.1/day - 0